sensor_id;sensor_type;location;lat;lon;timestamp;temperature;humidity
1468;DHT22;727;48.892;9.544;2022-10-22T00:00:55;13.70;99.90
1468;DHT22;727;48.892;9.544;2022-10-22T00:03:21;13.70;99.90
1468;DHT22;727;48.892;9.544;2022-10-22T00:05:48;13.70;99.90
1468;DHT22;727;48.892;9.544;2022-10-22T00:08:15;13.70;99.90
1468;DHT22;727;48.892;9.544;2022-10-22T00:10:41;13.70;99.90
1468;DHT22;727;48.892;9.544;2022-10-22T00:13:10;13.70;99.90
1468;DHT22;727;48.892;9.544;2022-10-22T00:15:37;13.70;99.90
1468;DHT22;727;48.892;9.544;2022-10-22T00:18:04;13.70;99.90
1468;DHT22;727;48.892;9.544;2022-10-22T00:20:30;13.70;99.90
1468;DHT22;727;48.892;9.544;2022-10-22T00:22:57;13.70;99.90
1468;DHT22;727;48.892;9.544;2022-10-22T00:25:24;13.70;99.90
1468;DHT22;727;48.892;9.544;2022-10-22T00:27:50;13.60;99.90
1468;DHT22;727;48.892;9.544;2022-10-22T00:30:18;13.70;99.90
1468;DHT22;727;48.892;9.544;2022-10-22T00:32:45;13.60;99.90
1468;DHT22;727;48.892;9.544;2022-10-22T00:35:12;13.60;99.90
1468;DHT22;727;48.892;9.544;2022-10-22T00:37:39;13.60;99.90
1468;DHT22;727;48.892;9.544;2022-10-22T00:40:06;13.60;99.90
1468;DHT22;727;48.892;9.544;2022-10-22T00:42:33;13.60;99.90
1468;DHT22;727;48.892;9.544;2022-10-22T00:47:44;13.60;99.90
1468;DHT22;727;48.892;9.544;2022-10-22T00:50:14;13.60;99.90
1468;DHT22;727;48.892;9.544;2022-10-22T00:52:43;13.50;99.90
1468;DHT22;727;48.892;9.544;2022-10-22T00:55:10;13.50;99.90
1468;DHT22;727;48.892;9.544;2022-10-22T00:57:37;13.50;99.90
1468;DHT22;727;48.892;9.544;2022-10-22T01:00:06;13.50;99.90
1468;DHT22;727;48.892;9.544;2022-10-22T01:02:33;13.50;99.90
1468;DHT22;727;48.892;9.544;2022-10-22T01:05:01;13.50;99.90
1468;DHT22;727;48.892;9.544;2022-10-22T01:07:27;13.50;99.90
1468;DHT22;727;48.892;9.544;2022-10-22T01:10:02;13.50;99.90
1468;DHT22;727;48.892;9.544;2022-10-22T01:12:39;13.50;99.90
1468;DHT22;727;48.892;9.544;2022-10-22T01:15:15;13.40;99.90
1468;DHT22;727;48.892;9.544;2022-10-22T01:17:49;13.40;99.90
1468;DHT22;727;48.892;9.544;2022-10-22T01:20:45;13.40;99.90
1468;DHT22;727;48.892;9.544;2022-10-22T01:23:23;13.40;99.90
1468;DHT22;727;48.892;9.544;2022-10-22T01:25:56;13.40;99.90
1468;DHT22;727;48.892;9.544;2022-10-22T01:28:38;13.30;99.90
1468;DHT22;727;48.892;9.544;2022-10-22T01:31:09;13.30;99.90
1468;DHT22;727;48.892;9.544;2022-10-22T01:33:38;13.40;99.90
1468;DHT22;727;48.892;9.544;2022-10-22T01:36:07;13.30;99.90
1468;DHT22;727;48.892;9.544;2022-10-22T01:38:34;13.30;99.90
1468;DHT22;727;48.892;9.544;2022-10-22T01:41:02;13.30;99.90
1468;DHT22;727;48.892;9.544;2022-10-22T01:43:29;13.30;99.90
1468;DHT22;727;48.892;9.544;2022-10-22T01:45:59;13.30;99.90
1468;DHT22;727;48.892;9.544;2022-10-22T01:48:50;13.30;99.90
1468;DHT22;727;48.892;9.544;2022-10-22T01:51:29;13.20;99.90
1468;DHT22;727;48.892;9.544;2022-10-22T01:54:01;13.20;99.90
1468;DHT22;727;48.892;9.544;2022-10-22T01:56:44;13.20;99.90
1468;DHT22;727;48.892;9.544;2022-10-22T01:59:24;13.20;99.90
1468;DHT22;727;48.892;9.544;2022-10-22T02:02:00;13.20;99.90
1468;DHT22;727;48.892;9.544;2022-10-22T02:04:34;13.20;99.90
1468;DHT22;727;48.892;9.544;2022-10-22T02:07:06;13.20;99.90
1468;DHT22;727;48.892;9.544;2022-10-22T02:09:34;13.20;99.90
1468;DHT22;727;48.892;9.544;2022-10-22T02:12:04;13.20;99.90
1468;DHT22;727;48.892;9.544;2022-10-22T02:14:33;13.10;99.90
1468;DHT22;727;48.892;9.544;2022-10-22T02:17:06;13.10;99.90
1468;DHT22;727;48.892;9.544;2022-10-22T02:19:38;13.10;99.90
1468;DHT22;727;48.892;9.544;2022-10-22T02:22:07;13.00;99.90
1468;DHT22;727;48.892;9.544;2022-10-22T02:24:34;13.00;99.90
1468;DHT22;727;48.892;9.544;2022-10-22T02:27:05;13.00;99.90
1468;DHT22;727;48.892;9.544;2022-10-22T02:29:36;13.00;99.90
1468;DHT22;727;48.892;9.544;2022-10-22T02:32:07;13.00;99.90
1468;DHT22;727;48.892;9.544;2022-10-22T02:34:35;12.90;99.90
1468;DHT22;727;48.892;9.544;2022-10-22T02:37:02;12.90;99.90
1468;DHT22;727;48.892;9.544;2022-10-22T02:39:30;12.90;99.90
1468;DHT22;727;48.892;9.544;2022-10-22T02:41:57;12.90;99.90
1468;DHT22;727;48.892;9.544;2022-10-22T02:44:26;12.90;99.90
1468;DHT22;727;48.892;9.544;2022-10-22T02:46:52;12.80;99.90
1468;DHT22;727;48.892;9.544;2022-10-22T02:49:20;12.90;99.90
1468;DHT22;727;48.892;9.544;2022-10-22T02:51:47;12.80;99.90
1468;DHT22;727;48.892;9.544;2022-10-22T02:54:14;12.70;99.90
1468;DHT22;727;48.892;9.544;2022-10-22T02:56:41;12.70;99.90
1468;DHT22;727;48.892;9.544;2022-10-22T02:59:08;12.70;99.90
1468;DHT22;727;48.892;9.544;2022-10-22T03:01:34;12.60;99.90
1468;DHT22;727;48.892;9.544;2022-10-22T03:04:01;12.60;99.90
1468;DHT22;727;48.892;9.544;2022-10-22T03:06:29;12.60;99.90
1468;DHT22;727;48.892;9.544;2022-10-22T03:08:56;12.50;99.90
1468;DHT22;727;48.892;9.544;2022-10-22T03:11:23;12.50;99.90
1468;DHT22;727;48.892;9.544;2022-10-22T03:13:49;12.50;99.90
1468;DHT22;727;48.892;9.544;2022-10-22T03:16:16;12.50;99.90
1468;DHT22;727;48.892;9.544;2022-10-22T03:18:43;12.50;99.90
1468;DHT22;727;48.892;9.544;2022-10-22T03:21:14;12.40;99.90
1468;DHT22;727;48.892;9.544;2022-10-22T03:23:47;12.50;99.90
1468;DHT22;727;48.892;9.544;2022-10-22T03:26:14;12.40;99.90
1468;DHT22;727;48.892;9.544;2022-10-22T03:28:41;12.50;99.90
1468;DHT22;727;48.892;9.544;2022-10-22T03:31:08;12.50;99.90
1468;DHT22;727;48.892;9.544;2022-10-22T03:33:35;12.50;99.90
1468;DHT22;727;48.892;9.544;2022-10-22T03:36:02;12.50;99.90
1468;DHT22;727;48.892;9.544;2022-10-22T03:38:29;12.50;99.90
1468;DHT22;727;48.892;9.544;2022-10-22T03:40:57;12.40;99.90
1468;DHT22;727;48.892;9.544;2022-10-22T03:43:24;12.50;99.90
1468;DHT22;727;48.892;9.544;2022-10-22T03:45:51;12.40;99.90
1468;DHT22;727;48.892;9.544;2022-10-22T03:48:17;12.40;99.90
1468;DHT22;727;48.892;9.544;2022-10-22T03:50:44;12.40;99.90
1468;DHT22;727;48.892;9.544;2022-10-22T03:53:11;12.40;99.90
1468;DHT22;727;48.892;9.544;2022-10-22T03:55:40;12.40;99.90
1468;DHT22;727;48.892;9.544;2022-10-22T03:58:08;12.40;99.90
1468;DHT22;727;48.892;9.544;2022-10-22T04:00:35;12.40;99.90
1468;DHT22;727;48.892;9.544;2022-10-22T04:03:02;12.40;99.90
1468;DHT22;727;48.892;9.544;2022-10-22T04:05:29;12.40;99.90
1468;DHT22;727;48.892;9.544;2022-10-22T04:07:57;12.30;99.90
1468;DHT22;727;48.892;9.544;2022-10-22T04:10:23;12.30;99.90
1468;DHT22;727;48.892;9.544;2022-10-22T04:12:50;12.30;99.90
1468;DHT22;727;48.892;9.544;2022-10-22T04:15:18;12.30;99.90
1468;DHT22;727;48.892;9.544;2022-10-22T04:17:45;12.30;99.90
1468;DHT22;727;48.892;9.544;2022-10-22T04:20:12;12.30;99.90
1468;DHT22;727;48.892;9.544;2022-10-22T04:22:38;12.30;99.90
1468;DHT22;727;48.892;9.544;2022-10-22T04:25:05;12.40;99.90
1468;DHT22;727;48.892;9.544;2022-10-22T04:27:33;12.40;99.90
1468;DHT22;727;48.892;9.544;2022-10-22T04:30:00;12.30;99.90
1468;DHT22;727;48.892;9.544;2022-10-22T04:32:28;12.30;99.90
1468;DHT22;727;48.892;9.544;2022-10-22T04:34:55;12.30;99.90
1468;DHT22;727;48.892;9.544;2022-10-22T04:37:22;12.40;99.90
1468;DHT22;727;48.892;9.544;2022-10-22T04:39:48;12.30;99.90
1468;DHT22;727;48.892;9.544;2022-10-22T04:42:15;12.30;99.90
1468;DHT22;727;48.892;9.544;2022-10-22T04:44:42;12.30;99.90
1468;DHT22;727;48.892;9.544;2022-10-22T04:47:09;12.30;99.90
1468;DHT22;727;48.892;9.544;2022-10-22T04:49:37;12.30;99.90
1468;DHT22;727;48.892;9.544;2022-10-22T04:52:04;12.20;99.90
1468;DHT22;727;48.892;9.544;2022-10-22T04:54:30;12.20;99.90
1468;DHT22;727;48.892;9.544;2022-10-22T04:56:57;12.10;99.90
1468;DHT22;727;48.892;9.544;2022-10-22T04:59:24;12.10;99.90
1468;DHT22;727;48.892;9.544;2022-10-22T05:01:50;12.10;99.90
1468;DHT22;727;48.892;9.544;2022-10-22T05:04:17;12.00;99.90
1468;DHT22;727;48.892;9.544;2022-10-22T05:06:46;12.00;99.90
1468;DHT22;727;48.892;9.544;2022-10-22T05:09:14;11.90;99.90
1468;DHT22;727;48.892;9.544;2022-10-22T05:11:43;11.90;99.90
1468;DHT22;727;48.892;9.544;2022-10-22T05:14:13;11.90;99.90
1468;DHT22;727;48.892;9.544;2022-10-22T05:16:40;11.80;99.90
1468;DHT22;727;48.892;9.544;2022-10-22T05:19:07;11.90;99.90
1468;DHT22;727;48.892;9.544;2022-10-22T05:21:34;11.80;99.90
1468;DHT22;727;48.892;9.544;2022-10-22T05:24:02;11.80;99.90
1468;DHT22;727;48.892;9.544;2022-10-22T05:26:29;11.70;99.90
1468;DHT22;727;48.892;9.544;2022-10-22T05:28:55;11.70;99.90
1468;DHT22;727;48.892;9.544;2022-10-22T05:31:22;11.70;99.90
1468;DHT22;727;48.892;9.544;2022-10-22T05:33:49;11.60;99.90
1468;DHT22;727;48.892;9.544;2022-10-22T05:36:18;11.60;99.90
1468;DHT22;727;48.892;9.544;2022-10-22T05:38:45;11.60;99.90
1468;DHT22;727;48.892;9.544;2022-10-22T05:41:16;11.60;99.90
1468;DHT22;727;48.892;9.544;2022-10-22T05:43:43;11.60;99.90
1468;DHT22;727;48.892;9.544;2022-10-22T05:46:12;11.50;99.90
1468;DHT22;727;48.892;9.544;2022-10-22T05:48:40;11.60;99.90
1468;DHT22;727;48.892;9.544;2022-10-22T05:51:09;11.70;99.90
1468;DHT22;727;48.892;9.544;2022-10-22T05:53:38;11.60;99.90
1468;DHT22;727;48.892;9.544;2022-10-22T05:56:07;11.60;99.90
1468;DHT22;727;48.892;9.544;2022-10-22T05:58:35;11.70;99.90
1468;DHT22;727;48.892;9.544;2022-10-22T06:01:03;11.70;99.90
1468;DHT22;727;48.892;9.544;2022-10-22T06:03:30;11.60;99.90
1468;DHT22;727;48.892;9.544;2022-10-22T06:05:59;11.60;99.90
1468;DHT22;727;48.892;9.544;2022-10-22T06:08:27;11.70;99.90
1468;DHT22;727;48.892;9.544;2022-10-22T06:10:54;11.60;99.90
1468;DHT22;727;48.892;9.544;2022-10-22T06:13:21;11.60;99.90
1468;DHT22;727;48.892;9.544;2022-10-22T06:15:49;11.60;99.90
1468;DHT22;727;48.892;9.544;2022-10-22T06:18:18;11.70;99.90
1468;DHT22;727;48.892;9.544;2022-10-22T06:20:45;11.60;99.90
1468;DHT22;727;48.892;9.544;2022-10-22T06:23:12;11.70;99.90
1468;DHT22;727;48.892;9.544;2022-10-22T06:25:39;11.70;99.90
1468;DHT22;727;48.892;9.544;2022-10-22T06:28:05;11.80;99.90
1468;DHT22;727;48.892;9.544;2022-10-22T06:30:32;11.80;99.90
1468;DHT22;727;48.892;9.544;2022-10-22T06:33:00;11.80;99.90
1468;DHT22;727;48.892;9.544;2022-10-22T06:35:27;11.80;99.90
1468;DHT22;727;48.892;9.544;2022-10-22T06:37:54;11.90;99.90
1468;DHT22;727;48.892;9.544;2022-10-22T06:40:20;11.90;99.90
1468;DHT22;727;48.892;9.544;2022-10-22T06:42:47;11.90;99.90
1468;DHT22;727;48.892;9.544;2022-10-22T06:45:14;12.00;99.90
1468;DHT22;727;48.892;9.544;2022-10-22T06:47:41;12.10;99.90
1468;DHT22;727;48.892;9.544;2022-10-22T06:50:09;12.20;99.90
1468;DHT22;727;48.892;9.544;2022-10-22T06:52:36;12.20;99.90
1468;DHT22;727;48.892;9.544;2022-10-22T06:55:03;12.20;99.90
1468;DHT22;727;48.892;9.544;2022-10-22T06:57:29;12.20;99.90
1468;DHT22;727;48.892;9.544;2022-10-22T06:59:56;12.30;99.90
1468;DHT22;727;48.892;9.544;2022-10-22T07:02:23;12.30;99.90
1468;DHT22;727;48.892;9.544;2022-10-22T07:04:50;12.30;99.90
1468;DHT22;727;48.892;9.544;2022-10-22T07:07:18;12.40;99.90
1468;DHT22;727;48.892;9.544;2022-10-22T07:09:44;12.50;99.90
1468;DHT22;727;48.892;9.544;2022-10-22T07:12:13;12.60;99.90
1468;DHT22;727;48.892;9.544;2022-10-22T07:14:40;12.70;99.90
1468;DHT22;727;48.892;9.544;2022-10-22T07:17:07;12.70;99.90
1468;DHT22;727;48.892;9.544;2022-10-22T07:19:34;12.80;99.90
1468;DHT22;727;48.892;9.544;2022-10-22T07:22:00;12.90;99.90
1468;DHT22;727;48.892;9.544;2022-10-22T07:24:29;13.00;99.90
1468;DHT22;727;48.892;9.544;2022-10-22T07:26:55;13.00;99.90
1468;DHT22;727;48.892;9.544;2022-10-22T07:29:22;13.10;99.90
1468;DHT22;727;48.892;9.544;2022-10-22T07:31:49;13.20;99.90
1468;DHT22;727;48.892;9.544;2022-10-22T07:34:16;13.30;99.90
1468;DHT22;727;48.892;9.544;2022-10-22T07:36:42;13.30;99.90
1468;DHT22;727;48.892;9.544;2022-10-22T07:39:09;13.40;99.90
1468;DHT22;727;48.892;9.544;2022-10-22T07:41:37;13.50;99.90
1468;DHT22;727;48.892;9.544;2022-10-22T07:44:04;13.50;99.90
1468;DHT22;727;48.892;9.544;2022-10-22T07:46:30;13.60;99.90
1468;DHT22;727;48.892;9.544;2022-10-22T07:48:59;13.60;99.90
1468;DHT22;727;48.892;9.544;2022-10-22T07:51:26;13.70;99.90
1468;DHT22;727;48.892;9.544;2022-10-22T07:53:53;13.70;99.90
1468;DHT22;727;48.892;9.544;2022-10-22T07:56:20;14.00;99.90
1468;DHT22;727;48.892;9.544;2022-10-22T07:58:48;14.00;99.90
1468;DHT22;727;48.892;9.544;2022-10-22T08:01:14;14.20;99.90
1468;DHT22;727;48.892;9.544;2022-10-22T08:03:41;14.30;99.90
1468;DHT22;727;48.892;9.544;2022-10-22T08:06:08;14.50;99.90
1468;DHT22;727;48.892;9.544;2022-10-22T08:08:37;14.90;99.90
1468;DHT22;727;48.892;9.544;2022-10-22T08:11:04;16.00;99.90
1468;DHT22;727;48.892;9.544;2022-10-22T08:13:31;16.40;99.90
1468;DHT22;727;48.892;9.544;2022-10-22T08:16:00;16.70;99.90
1468;DHT22;727;48.892;9.544;2022-10-22T08:18:27;16.80;99.90
1468;DHT22;727;48.892;9.544;2022-10-22T08:20:54;17.00;99.90
1468;DHT22;727;48.892;9.544;2022-10-22T08:23:21;17.70;99.90
1468;DHT22;727;48.892;9.544;2022-10-22T08:25:47;19.10;99.90
1468;DHT22;727;48.892;9.544;2022-10-22T08:28:14;20.60;99.90
1468;DHT22;727;48.892;9.544;2022-10-22T08:30:41;21.50;99.90
1468;DHT22;727;48.892;9.544;2022-10-22T08:33:10;21.00;99.90
1468;DHT22;727;48.892;9.544;2022-10-22T08:35:37;20.20;99.90
1468;DHT22;727;48.892;9.544;2022-10-22T08:38:04;20.00;99.90
1468;DHT22;727;48.892;9.544;2022-10-22T08:40:33;19.70;99.90
1468;DHT22;727;48.892;9.544;2022-10-22T08:43:26;19.20;99.90
1468;DHT22;727;48.892;9.544;2022-10-22T08:46:05;18.60;99.90
1468;DHT22;727;48.892;9.544;2022-10-22T08:48:42;18.60;99.90
1468;DHT22;727;48.892;9.544;2022-10-22T08:51:14;19.70;99.90
1468;DHT22;727;48.892;9.544;2022-10-22T08:53:52;21.60;99.90
1468;DHT22;727;48.892;9.544;2022-10-22T08:56:24;22.70;97.80
1468;DHT22;727;48.892;9.544;2022-10-22T08:58:55;24.00;95.10
1468;DHT22;727;48.892;9.544;2022-10-22T09:01:32;24.40;92.50
1468;DHT22;727;48.892;9.544;2022-10-22T09:04:06;25.10;91.50
1468;DHT22;727;48.892;9.544;2022-10-22T09:06:37;26.20;85.70
1468;DHT22;727;48.892;9.544;2022-10-22T09:09:10;26.50;82.40
1468;DHT22;727;48.892;9.544;2022-10-22T09:11:39;26.70;80.80
1468;DHT22;727;48.892;9.544;2022-10-22T09:14:12;27.50;78.50
1468;DHT22;727;48.892;9.544;2022-10-22T09:16:52;28.40;72.50
1468;DHT22;727;48.892;9.544;2022-10-22T09:19:33;28.00;71.90
1468;DHT22;727;48.892;9.544;2022-10-22T09:22:09;27.80;71.60
1468;DHT22;727;48.892;9.544;2022-10-22T09:24:43;27.50;72.90
1468;DHT22;727;48.892;9.544;2022-10-22T09:27:12;27.20;74.00
1468;DHT22;727;48.892;9.544;2022-10-22T09:29:40;26.00;75.00
1468;DHT22;727;48.892;9.544;2022-10-22T09:32:07;25.40;76.80
1468;DHT22;727;48.892;9.544;2022-10-22T09:34:35;25.60;78.20
1468;DHT22;727;48.892;9.544;2022-10-22T09:37:05;26.90;76.30
1468;DHT22;727;48.892;9.544;2022-10-22T09:39:33;28.30;70.50
1468;DHT22;727;48.892;9.544;2022-10-22T09:42:00;28.60;69.70
1468;DHT22;727;48.892;9.544;2022-10-22T09:44:27;29.50;65.60
1468;DHT22;727;48.892;9.544;2022-10-22T09:46:54;29.80;65.50
1468;DHT22;727;48.892;9.544;2022-10-22T09:49:22;30.60;62.40
1468;DHT22;727;48.892;9.544;2022-10-22T09:51:53;30.60;62.50
1468;DHT22;727;48.892;9.544;2022-10-22T09:54:22;30.50;61.20
1468;DHT22;727;48.892;9.544;2022-10-22T09:56:52;30.30;61.00
1468;DHT22;727;48.892;9.544;2022-10-22T09:59:29;30.30;61.60
1468;DHT22;727;48.892;9.544;2022-10-22T10:02:02;31.20;59.60
1468;DHT22;727;48.892;9.544;2022-10-22T10:04:33;31.60;58.50
1468;DHT22;727;48.892;9.544;2022-10-22T10:07:02;31.20;58.30
1468;DHT22;727;48.892;9.544;2022-10-22T10:09:30;30.90;57.90
1468;DHT22;727;48.892;9.544;2022-10-22T10:12:04;31.10;58.50
1468;DHT22;727;48.892;9.544;2022-10-22T10:14:38;30.90;57.90
1468;DHT22;727;48.892;9.544;2022-10-22T10:17:17;30.60;58.40
1468;DHT22;727;48.892;9.544;2022-10-22T10:19:55;31.20;59.00
1468;DHT22;727;48.892;9.544;2022-10-22T10:22:40;31.80;57.60
1468;DHT22;727;48.892;9.544;2022-10-22T10:25:22;31.70;56.20
1468;DHT22;727;48.892;9.544;2022-10-22T10:27:55;31.10;57.40
1468;DHT22;727;48.892;9.544;2022-10-22T10:30:24;31.30;57.00
1468;DHT22;727;48.892;9.544;2022-10-22T10:33:07;31.50;56.70
1468;DHT22;727;48.892;9.544;2022-10-22T10:35:44;31.30;56.30
1468;DHT22;727;48.892;9.544;2022-10-22T10:38:30;31.20;57.20
1468;DHT22;727;48.892;9.544;2022-10-22T10:41:06;30.50;57.70
1468;DHT22;727;48.892;9.544;2022-10-22T10:43:40;30.10;58.30
1468;DHT22;727;48.892;9.544;2022-10-22T10:46:15;29.30;59.60
1468;DHT22;727;48.892;9.544;2022-10-22T10:48:49;29.40;60.50
1468;DHT22;727;48.892;9.544;2022-10-22T10:51:35;30.70;58.90
1468;DHT22;727;48.892;9.544;2022-10-22T10:54:22;31.30;57.80
1468;DHT22;727;48.892;9.544;2022-10-22T10:56:55;31.80;55.70
1468;DHT22;727;48.892;9.544;2022-10-22T10:59:34;32.00;53.50
1468;DHT22;727;48.892;9.544;2022-10-22T11:02:25;31.00;57.60
1468;DHT22;727;48.892;9.544;2022-10-22T11:05:03;31.40;55.60
1468;DHT22;727;48.892;9.544;2022-10-22T11:07:35;31.50;55.70
1468;DHT22;727;48.892;9.544;2022-10-22T11:10:11;32.20;53.60
1468;DHT22;727;48.892;9.544;2022-10-22T11:12:42;32.00;54.30
1468;DHT22;727;48.892;9.544;2022-10-22T11:15:15;30.80;55.10
1468;DHT22;727;48.892;9.544;2022-10-22T11:17:47;28.50;58.10
1468;DHT22;727;48.892;9.544;2022-10-22T11:20:18;26.80;63.80
1468;DHT22;727;48.892;9.544;2022-10-22T11:22:52;25.50;67.60
1468;DHT22;727;48.892;9.544;2022-10-22T11:25:26;24.30;71.50
1468;DHT22;727;48.892;9.544;2022-10-22T11:27:58;23.40;74.00
1468;DHT22;727;48.892;9.544;2022-10-22T11:30:30;24.00;75.70
1468;DHT22;727;48.892;9.544;2022-10-22T11:33:01;26.10;69.70
1468;DHT22;727;48.892;9.544;2022-10-22T11:35:31;27.60;65.10
1468;DHT22;727;48.892;9.544;2022-10-22T11:38:00;28.70;64.20
1468;DHT22;727;48.892;9.544;2022-10-22T11:40:36;29.70;59.40
1468;DHT22;727;48.892;9.544;2022-10-22T11:43:05;30.90;57.60
1468;DHT22;727;48.892;9.544;2022-10-22T11:45:36;30.60;55.60
1468;DHT22;727;48.892;9.544;2022-10-22T11:48:14;28.80;57.50
1468;DHT22;727;48.892;9.544;2022-10-22T11:50:45;28.00;63.00
1468;DHT22;727;48.892;9.544;2022-10-22T11:53:18;28.60;63.90
1468;DHT22;727;48.892;9.544;2022-10-22T11:55:49;29.50;58.00
1468;DHT22;727;48.892;9.544;2022-10-22T11:58:41;30.30;56.80
1468;DHT22;727;48.892;9.544;2022-10-22T12:01:24;30.80;55.80
1468;DHT22;727;48.892;9.544;2022-10-22T12:03:52;31.00;54.30
1468;DHT22;727;48.892;9.544;2022-10-22T12:06:52;30.70;55.60
1468;DHT22;727;48.892;9.544;2022-10-22T12:09:22;30.50;54.30
1468;DHT22;727;48.892;9.544;2022-10-22T12:11:51;30.30;54.00
1468;DHT22;727;48.892;9.544;2022-10-22T12:14:20;30.30;54.70
1468;DHT22;727;48.892;9.544;2022-10-22T12:16:52;30.20;53.20
1468;DHT22;727;48.892;9.544;2022-10-22T12:19:28;29.90;54.70
1468;DHT22;727;48.892;9.544;2022-10-22T12:21:57;29.60;57.30
1468;DHT22;727;48.892;9.544;2022-10-22T12:24:29;30.30;54.40
1468;DHT22;727;48.892;9.544;2022-10-22T12:26:58;30.50;55.60
1468;DHT22;727;48.892;9.544;2022-10-22T12:29:24;30.90;52.30
1468;DHT22;727;48.892;9.544;2022-10-22T12:31:53;30.50;53.10
1468;DHT22;727;48.892;9.544;2022-10-22T12:34:22;30.90;53.20
1468;DHT22;727;48.892;9.544;2022-10-22T12:36:51;31.10;51.20
1468;DHT22;727;48.892;9.544;2022-10-22T12:39:20;30.50;53.60
1468;DHT22;727;48.892;9.544;2022-10-22T12:41:47;30.30;53.30
1468;DHT22;727;48.892;9.544;2022-10-22T12:44:16;30.40;53.00
1468;DHT22;727;48.892;9.544;2022-10-22T12:46:45;30.00;56.00
1468;DHT22;727;48.892;9.544;2022-10-22T12:49:15;30.00;54.80
1468;DHT22;727;48.892;9.544;2022-10-22T12:51:44;29.80;54.00
1468;DHT22;727;48.892;9.544;2022-10-22T12:54:21;29.10;56.40
1468;DHT22;727;48.892;9.544;2022-10-22T12:56:49;28.50;56.60
1468;DHT22;727;48.892;9.544;2022-10-22T12:59:21;28.80;55.20
1468;DHT22;727;48.892;9.544;2022-10-22T13:01:50;29.00;55.20
1468;DHT22;727;48.892;9.544;2022-10-22T13:04:31;28.50;57.30
1468;DHT22;727;48.892;9.544;2022-10-22T13:07:18;28.50;58.10
1468;DHT22;727;48.892;9.544;2022-10-22T13:09:46;29.00;56.00
1468;DHT22;727;48.892;9.544;2022-10-22T13:12:13;29.30;56.00
1468;DHT22;727;48.892;9.544;2022-10-22T13:14:45;29.40;53.30
1468;DHT22;727;48.892;9.544;2022-10-22T13:17:14;29.40;55.40
1468;DHT22;727;48.892;9.544;2022-10-22T13:19:45;29.20;55.00
1468;DHT22;727;48.892;9.544;2022-10-22T13:22:28;29.60;53.10
1468;DHT22;727;48.892;9.544;2022-10-22T13:24:55;29.80;52.10
1468;DHT22;727;48.892;9.544;2022-10-22T13:27:24;29.40;51.10
1468;DHT22;727;48.892;9.544;2022-10-22T13:29:53;28.70;54.50
1468;DHT22;727;48.892;9.544;2022-10-22T13:32:26;28.80;53.60
1468;DHT22;727;48.892;9.544;2022-10-22T13:34:55;29.10;53.10
1468;DHT22;727;48.892;9.544;2022-10-22T13:37:22;29.30;53.00
1468;DHT22;727;48.892;9.544;2022-10-22T13:39:48;29.10;52.20
1468;DHT22;727;48.892;9.544;2022-10-22T13:42:15;29.00;53.40
1468;DHT22;727;48.892;9.544;2022-10-22T13:44:42;29.30;52.10
1468;DHT22;727;48.892;9.544;2022-10-22T13:47:22;29.20;50.50
1468;DHT22;727;48.892;9.544;2022-10-22T13:49:50;28.10;54.10
1468;DHT22;727;48.892;9.544;2022-10-22T13:52:26;27.00;54.70
1468;DHT22;727;48.892;9.544;2022-10-22T13:54:53;25.80;54.80
1468;DHT22;727;48.892;9.544;2022-10-22T13:57:20;24.90;57.50
1468;DHT22;727;48.892;9.544;2022-10-22T13:59:46;24.30;58.50
1468;DHT22;727;48.892;9.544;2022-10-22T14:02:15;23.70;59.50
1468;DHT22;727;48.892;9.544;2022-10-22T14:04:43;23.30;60.80
1468;DHT22;727;48.892;9.544;2022-10-22T14:07:12;22.90;63.10
1468;DHT22;727;48.892;9.544;2022-10-22T14:09:40;22.70;65.40
1468;DHT22;727;48.892;9.544;2022-10-22T14:12:11;22.50;69.60
1468;DHT22;727;48.892;9.544;2022-10-22T14:14:38;22.40;70.60
1468;DHT22;727;48.892;9.544;2022-10-22T14:17:07;22.30;69.50
1468;DHT22;727;48.892;9.544;2022-10-22T14:19:35;22.10;71.40
1468;DHT22;727;48.892;9.544;2022-10-22T14:22:02;21.90;72.60
1468;DHT22;727;48.892;9.544;2022-10-22T14:24:29;21.80;73.80
1468;DHT22;727;48.892;9.544;2022-10-22T14:26:56;21.70;73.40
1468;DHT22;727;48.892;9.544;2022-10-22T14:29:22;21.60;74.30
1468;DHT22;727;48.892;9.544;2022-10-22T14:31:49;21.50;75.80
1468;DHT22;727;48.892;9.544;2022-10-22T14:34:16;21.40;73.30
1468;DHT22;727;48.892;9.544;2022-10-22T14:36:44;21.20;74.90
1468;DHT22;727;48.892;9.544;2022-10-22T14:39:11;21.20;76.60
1468;DHT22;727;48.892;9.544;2022-10-22T14:41:38;21.10;76.50
1468;DHT22;727;48.892;9.544;2022-10-22T14:44:05;20.90;78.60
1468;DHT22;727;48.892;9.544;2022-10-22T14:46:36;20.90;79.50
1468;DHT22;727;48.892;9.544;2022-10-22T14:49:04;20.80;80.80
1468;DHT22;727;48.892;9.544;2022-10-22T14:51:31;20.70;80.30
1468;DHT22;727;48.892;9.544;2022-10-22T14:53:59;20.50;84.00
1468;DHT22;727;48.892;9.544;2022-10-22T14:56:26;20.40;85.40
1468;DHT22;727;48.892;9.544;2022-10-22T14:58:52;20.10;87.80
1468;DHT22;727;48.892;9.544;2022-10-22T15:01:19;19.90;90.10
1468;DHT22;727;48.892;9.544;2022-10-22T15:03:46;19.60;90.90
1468;DHT22;727;48.892;9.544;2022-10-22T15:06:12;19.40;92.00
1468;DHT22;727;48.892;9.544;2022-10-22T15:08:39;19.10;93.00
1468;DHT22;727;48.892;9.544;2022-10-22T15:11:10;18.90;93.80
1468;DHT22;727;48.892;9.544;2022-10-22T15:13:37;18.70;94.80
1468;DHT22;727;48.892;9.544;2022-10-22T15:16:07;18.40;96.00
1468;DHT22;727;48.892;9.544;2022-10-22T15:18:34;18.20;96.90
1468;DHT22;727;48.892;9.544;2022-10-22T15:21:03;18.00;97.90
1468;DHT22;727;48.892;9.544;2022-10-22T15:23:30;18.00;98.50
1468;DHT22;727;48.892;9.544;2022-10-22T15:25:57;17.80;99.10
1468;DHT22;727;48.892;9.544;2022-10-22T15:28:25;17.70;99.60
1468;DHT22;727;48.892;9.544;2022-10-22T15:30:56;17.60;99.90
1468;DHT22;727;48.892;9.544;2022-10-22T15:33:23;17.40;99.90
1468;DHT22;727;48.892;9.544;2022-10-22T15:35:50;17.20;99.90
1468;DHT22;727;48.892;9.544;2022-10-22T15:38:17;17.00;99.90
1468;DHT22;727;48.892;9.544;2022-10-22T15:40:44;16.80;99.90
1468;DHT22;727;48.892;9.544;2022-10-22T15:43:11;16.60;99.90
1468;DHT22;727;48.892;9.544;2022-10-22T15:45:39;16.40;99.90
1468;DHT22;727;48.892;9.544;2022-10-22T15:48:06;16.20;99.90
1468;DHT22;727;48.892;9.544;2022-10-22T15:50:36;16.10;99.90
1468;DHT22;727;48.892;9.544;2022-10-22T15:53:03;16.00;99.90
1468;DHT22;727;48.892;9.544;2022-10-22T15:55:30;15.90;99.90
1468;DHT22;727;48.892;9.544;2022-10-22T15:57:57;15.80;99.90
1468;DHT22;727;48.892;9.544;2022-10-22T16:00:23;15.60;99.90
1468;DHT22;727;48.892;9.544;2022-10-22T16:02:52;15.50;99.90
1468;DHT22;727;48.892;9.544;2022-10-22T16:05:19;15.30;99.90
1468;DHT22;727;48.892;9.544;2022-10-22T16:07:45;15.20;99.90
1468;DHT22;727;48.892;9.544;2022-10-22T16:10:12;15.10;99.90
1468;DHT22;727;48.892;9.544;2022-10-22T16:12:39;15.00;99.90
1468;DHT22;727;48.892;9.544;2022-10-22T16:15:07;14.80;99.90
1468;DHT22;727;48.892;9.544;2022-10-22T16:17:34;14.80;99.90
1468;DHT22;727;48.892;9.544;2022-10-22T16:20:03;14.70;99.90
1468;DHT22;727;48.892;9.544;2022-10-22T16:22:29;14.50;99.90
1468;DHT22;727;48.892;9.544;2022-10-22T16:24:57;14.40;99.90
1468;DHT22;727;48.892;9.544;2022-10-22T16:27:23;14.30;99.90
1468;DHT22;727;48.892;9.544;2022-10-22T16:29:50;14.20;99.90
1468;DHT22;727;48.892;9.544;2022-10-22T16:32:17;14.10;99.90
1468;DHT22;727;48.892;9.544;2022-10-22T16:34:55;14.00;99.90